Peotone Weather
Station Historical Data
 
Daily Summary for February 24, 2017 Units:  English    Metric   Both
« Previous Day
Next Day »
Daily Weekly Monthly Yearly Custom
  Current: High: Low: Average:
Temperature: 39.4 °F 64.8 °F 38.9 °F 49.2 °F
Dew Point: 36.7 °F 59.6 °F 36.1 °F 46.8 °F
Humidity: 90% 97% 78% 91%
Wind Speed: 10.3mph 24.1mph 0.0mph 8.1mph
Wind Gust: 16.1mph 31.0mph - -
WindWNW - - South
Pressure: 29.60 in 29.61 in 29.41 in -
Precipitation: 0.05 in      
Historical Graphs
 
 
Tabular Data for February 24, 2017
Time Temperature Dew Point Pressure Wind Wind Speed Wind Gust Humidity Rainfall Rate (Hourly) solar Conditions
00:00 42.2 °F 40.9 °F 29.60 in ENE 3.5 mph 11.5 mph 95% 0.00 in 0.00 W/m2
00:01 42.2 °F 40.9 °F 29.60 in East 6.9 mph 6.9 mph 95% 0.00 in 0.00 W/m2
00:05 42.4 °F 41.1 °F 29.60 in East 2.3 mph 12.6 mph 95% 0.00 in 0.00 W/m2
00:06 42.4 °F 41.1 °F 29.61 in East 5.8 mph 8.1 mph 95% 0.00 in 0.00 W/m2
00:10 42.7 °F 41.4 °F 29.61 in ENE 2.3 mph 10.4 mph 95% 0.00 in 0.00 W/m2
00:11 42.8 °F 41.5 °F 29.61 in ENE 3.4 mph 3.4 mph 95% 0.00 in 0.00 W/m2
00:15 42.8 °F 41.5 °F 29.61 in NNE 6.9 mph 11.5 mph 95% 0.00 in 0.00 W/m2
00:16 42.8 °F 41.5 °F 29.61 in ENE 3.4 mph 6.9 mph 95% 0.00 in 0.00 W/m2
00:20 42.8 °F 41.5 °F 29.61 in ENE 1.1 mph 11.5 mph 95% 0.00 in 0.00 W/m2
00:21 42.8 °F 41.5 °F 29.61 in East 6.9 mph 6.9 mph 95% 0.00 in 0.00 W/m2
00:25 42.9 °F 41.6 °F 29.61 in East 1.1 mph 9.2 mph 95% 0.00 in 0.00 W/m2
00:26 42.9 °F 41.6 °F 29.61 in ENE 9.2 mph 9.2 mph 95% 0.00 in 0.00 W/m2
00:30 42.9 °F 41.6 °F 29.60 in East 6.9 mph 11.5 mph 95% 0.00 in 0.00 W/m2
00:31 42.9 °F 41.6 °F 29.60 in East 1.1 mph 6.9 mph 95% 0.00 in 0.00 W/m2
00:35 43.0 °F 41.7 °F 29.60 in NE 3.5 mph 10.4 mph 95% 0.00 in 0.00 W/m2
00:36 43.0 °F 41.7 °F 29.60 in NE 5.8 mph 10.3 mph 95% 0.00 in 0.00 W/m2
00:40 43.2 °F 41.9 °F 29.59 in ENE 2.3 mph 10.4 mph 95% 0.00 in 0.00 W/m2
00:42 43.2 °F 41.9 °F 29.59 in ENE 10.3 mph 14.9 mph 95% 0.00 in 0.00 W/m2
00:45 43.2 °F 41.9 °F 29.58 in East 5.8 mph 14.9 mph 95% 0.00 in 0.00 W/m2
00:47 43.2 °F 41.9 °F 29.58 in East 3.4 mph 14.9 mph 95% 0.00 in 0.00 W/m2
00:50 43.2 °F 41.9 °F 29.58 in ENE 5.8 mph 14.9 mph 95% 0.00 in 0.00 W/m2
00:52 43.3 °F 42.0 °F 29.58 in East 9.2 mph 9.2 mph 95% 0.00 in 0.00 W/m2
00:55 43.5 °F 42.2 °F 29.58 in ENE 2.3 mph 12.6 mph 95% 0.00 in 0.00 W/m2
00:57 43.5 °F 42.2 °F 29.58 in ENE 4.6 mph 6.9 mph 95% 0.00 in 0.00 W/m2
01:00 43.8 °F 42.5 °F 29.57 in NE 5.8 mph 10.4 mph 95% 0.00 in 0.00 W/m2
01:02 43.8 °F 42.5 °F 29.57 in NNE 5.8 mph 10.3 mph 95% 0.00 in 0.00 W/m2
01:05 44.1 °F 42.8 °F 29.57 in NE 10.4 mph 11.5 mph 95% 0.00 in 0.00 W/m2
01:07 44.0 °F 42.7 °F 29.57 in ENE 2.3 mph 11.5 mph 95% 0.00 in 0.00 W/m2
01:10 43.7 °F 42.4 °F 29.56 in NE 10.4 mph 13.8 mph 95% 0.00 in 0.00 W/m2
01:12 43.6 °F 42.3 °F 29.56 in NE 10.3 mph 10.3 mph 95% 0.00 in 0.00 W/m2
01:15 43.4 °F 42.1 °F 29.56 in NE 8.1 mph 16.1 mph 95% 0.00 in 0.00 W/m2
01:17 43.4 °F 42.1 °F 29.55 in NNE 4.6 mph 17.2 mph 95% 0.00 in 0.00 W/m2
01:20 43.5 °F 42.2 °F 29.57 in East 8.1 mph 17.2 mph 95% 0.00 in 0.00 W/m2
01:22 43.5 °F 42.2 °F 29.56 in NE 9.2 mph 12.6 mph 95% 0.00 in 0.00 W/m2
01:25 43.6 °F 42.3 °F 29.56 in NNW 3.5 mph 12.6 mph 95% 0.00 in 0.00 W/m2
01:27 43.6 °F 42.3 °F 29.57 in SSW 3.4 mph 4.6 mph 95% 0.00 in 0.00 W/m2
01:30 43.8 °F 42.5 °F 29.57 in SW 2.3 mph 5.8 mph 95% 0.00 in 0.00 W/m2
01:32 43.8 °F 42.5 °F 29.57 in NNW 4.6 mph 8.1 mph 95% 0.00 in 0.00 W/m2
01:35 43.7 °F 42.4 °F 29.57 in NNW 8.1 mph 8.1 mph 95% 0.00 in 0.00 W/m2
01:37 43.7 °F 42.4 °F 29.57 in North 4.6 mph 8.1 mph 95% 0.00 in 0.00 W/m2
01:40 43.8 °F 42.5 °F 29.57 in North 3.5 mph 8.1 mph 95% 0.00 in 0.00 W/m2
01:42 43.8 °F 42.5 °F 29.57 in North 2.3 mph 3.4 mph 95% 0.00 in 0.00 W/m2
01:45 43.9 °F 42.6 °F 29.57 in NNW 3.5 mph 6.9 mph 95% 0.00 in 0.00 W/m2
01:47 44.0 °F 42.9 °F 29.57 in North 4.6 mph 9.2 mph 96% 0.00 in 0.00 W/m2
01:50 43.9 °F 42.6 °F 29.57 in North 8.1 mph 10.4 mph 95% 0.00 in 0.00 W/m2
01:52 43.8 °F 42.5 °F 29.57 in NNE 5.8 mph 9.2 mph 95% 0.00 in 0.00 W/m2
01:55 43.3 °F 42.0 °F 29.57 in North 8.1 mph 11.5 mph 95% 0.00 in 0.00 W/m2
01:57 43.1 °F 41.8 °F 29.57 in NNE 4.6 mph 10.3 mph 95% 0.00 in 0.00 W/m2
02:00 42.8 °F 41.5 °F 29.57 in North 8.1 mph 10.4 mph 95% 0.00 in 0.00 W/m2
02:02 42.7 °F 41.4 °F 29.57 in NNE 3.4 mph 8.1 mph 95% 0.00 in 0.00 W/m2
02:05 42.6 °F 41.3 °F 29.57 in NNE 4.6 mph 10.4 mph 95% 0.00 in 0.00 W/m2
02:07 42.5 °F 41.2 °F 29.56 in North 4.6 mph 5.8 mph 95% 0.00 in 0.00 W/m2
02:10 42.4 °F 41.1 °F 29.56 in NNE 5.8 mph 12.6 mph 95% 0.00 in 0.00 W/m2
02:13 42.3 °F 41.0 °F 29.55 in North 9.2 mph 9.2 mph 95% 0.00 in 0.00 W/m2
02:15 42.3 °F 41.0 °F 29.55 in NE 9.2 mph 10.4 mph 95% 0.00 in 0.00 W/m2
02:18 42.3 °F 41.0 °F 29.55 in NE 5.8 mph 11.5 mph 95% 0.00 in 0.00 W/m2
02:20 42.2 °F 40.9 °F 29.56 in North 5.8 mph 11.5 mph 95% 0.00 in 0.00 W/m2
02:23 42.2 °F 41.1 °F 29.55 in NE 4.6 mph 10.3 mph 96% 0.00 in 0.00 W/m2
02:25 42.2 °F 41.1 °F 29.55 in NE 8.1 mph 10.4 mph 96% 0.00 in 0.00 W/m2
02:28 42.1 °F 41.0 °F 29.55 in NE 2.3 mph 9.2 mph 96% 0.00 in 0.00 W/m2
02:30 42.0 °F 40.9 °F 29.55 in NE 4.6 mph 9.2 mph 96% 0.00 in 0.00 W/m2
02:33 41.9 °F 40.8 °F 29.55 in NE 2.3 mph 6.9 mph 96% 0.00 in 0.00 W/m2
02:35 41.8 °F 40.8 °F 29.54 in North 2.3 mph 11.5 mph 96% 0.00 in 0.00 W/m2
02:38 41.8 °F 40.8 °F 29.54 in ENE 8.1 mph 8.1 mph 96% 0.00 in 0.00 W/m2
02:40 41.7 °F 40.7 °F 29.53 in North 5.8 mph 10.4 mph 96% 0.00 in 0.00 W/m2
02:43 41.7 °F 40.7 °F 29.53 in NE 8.1 mph 9.2 mph 96% 0.00 in 0.00 W/m2
02:45 41.7 °F 40.7 °F 29.53 in NE 2.3 mph 9.2 mph 96% 0.00 in 0.00 W/m2
02:48 41.7 °F 40.7 °F 29.53 in NE 8.1 mph 8.1 mph 96% 0.00 in 0.00 W/m2
02:50 41.7 °F 40.7 °F 29.53 in ENE 1.1 mph 8.1 mph 96% 0.00 in 0.00 W/m2
02:53 41.7 °F 40.7 °F 29.53 in NE 4.6 mph 5.8 mph 96% 0.00 in 0.00 W/m2
02:55 41.8 °F 40.8 °F 29.53 in Calm   5.8 mph 96% 0.00 in 0.00 W/m2
02:58 42.0 °F 40.9 °F 29.53 in NNE 1.1 mph 3.4 mph 96% 0.00 in 0.00 W/m2
03:00 41.9 °F 40.8 °F 29.53 in Calm   3.5 mph 96% 0.00 in 0.00 W/m2
03:07 42.0 °F 40.9 °F 29.53 in Calm     96% 0.00 in 0.00 W/m2
03:12 42.2 °F 41.1 °F 29.53 in NNE 1.1 mph 5.8 mph 96% 0.00 in 0.00 W/m2
03:17 42.3 °F 41.2 °F 29.53 in NNE 4.6 mph 6.9 mph 96% 0.00 in 0.00 W/m2
03:22 42.4 °F 41.3 °F 29.53 in NE 5.8 mph 6.9 mph 96% 0.00 in 0.00 W/m2
03:27 42.5 °F 41.4 °F 29.53 in NE 2.3 mph 6.9 mph 96% 0.00 in 0.00 W/m2
03:32 42.7 °F 41.6 °F 29.53 in NE 4.6 mph 5.8 mph 96% 0.00 in 0.00 W/m2
03:37 42.7 °F 41.6 °F 29.52 in ENE 1.1 mph 5.8 mph 96% 0.00 in 0.00 W/m2
03:42 42.9 °F 41.8 °F 29.52 in NE 5.8 mph 5.8 mph 96% 0.00 in 0.00 W/m2
03:47 43.0 °F 41.9 °F 29.52 in East 1.1 mph 5.8 mph 96% 0.00 in 0.00 W/m2
03:53 43.2 °F 42.1 °F 29.52 in ENE 3.4 mph 4.6 mph 96% 0.00 in 0.00 W/m2
03:58 43.3 °F 42.2 °F 29.52 in ENE 5.8 mph 5.8 mph 96% 0.00 in 0.00 W/m2
04:03 43.3 °F 42.2 °F 29.51 in NE 2.3 mph 4.6 mph 96% 0.00 in 0.00 W/m2
04:08 43.4 °F 42.6 °F 29.51 in ENE 1.1 mph 8.1 mph 97% 0.00 in 0.00 W/m2
04:13 43.4 °F 42.6 °F 29.51 in ENE 3.4 mph 5.8 mph 97% 0.00 in 0.00 W/m2
04:18 43.4 °F 42.6 °F 29.51 in ENE 4.6 mph 6.9 mph 97% 0.00 in 0.00 W/m2
04:23 43.4 °F 42.6 °F 29.51 in ENE 3.4 mph 6.9 mph 97% 0.00 in 0.00 W/m2
04:28 43.5 °F 42.7 °F 29.50 in East 3.4 mph 8.1 mph 97% 0.00 in 0.00 W/m2
04:33 43.6 °F 42.8 °F 29.50 in ENE 3.4 mph 3.4 mph 97% 0.00 in 0.00 W/m2
04:38 43.9 °F 42.8 °F 29.50 in ENE 4.6 mph 4.6 mph 96% 0.00 in 0.00 W/m2
04:43 44.2 °F 43.4 °F 29.49 in ENE 3.4 mph 8.1 mph 97% 0.00 in 0.00 W/m2
04:48 44.4 °F 43.6 °F 29.49 in East 2.3 mph 5.8 mph 97% 0.00 in 0.00 W/m2
04:53 44.5 °F 43.7 °F 29.49 in East 2.3 mph 6.9 mph 97% 0.00 in 0.00 W/m2
04:58 44.5 °F 43.4 °F 29.49 in East 1.1 mph 3.4 mph 96% 0.00 in 0.00 W/m2
05:03 44.8 °F 44.0 °F 29.49 in ENE 1.1 mph 4.6 mph 97% 0.00 in 0.00 W/m2
05:08 45.3 °F 44.5 °F 29.48 in Calm   5.8 mph 97% 0.00 in 0.00 W/m2
05:13 45.9 °F 45.1 °F 29.48 in ESE 4.6 mph 4.6 mph 97% 0.00 in 0.00 W/m2
05:19 45.8 °F 45.0 °F 29.48 in Calm   3.4 mph 97% 0.00 in 0.00 W/m2
05:24 46.3 °F 45.5 °F 29.50 in ESE 2.3 mph 2.3 mph 97% 0.00 in 0.00 W/m2
05:29 47.0 °F 46.2 °F 29.51 in ESE 1.1 mph 3.4 mph 97% 0.00 in 0.00 W/m2
05:34 47.2 °F 46.4 °F 29.51 in SE 4.6 mph 4.6 mph 97% 0.00 in 0.00 W/m2
05:39 47.8 °F 47.0 °F 29.51 in SSE 4.6 mph 8.1 mph 97% 0.01 in 0.00 W/m2
05:44 50.5 °F 49.7 °F 29.50 in SE 6.9 mph 12.6 mph 97% 0.03 in 0.00 W/m2
05:49 52.4 °F 51.6 °F 29.48 in SSE 8.1 mph 14.9 mph 97% 0.04 in 0.00 W/m2
05:54 53.0 °F 52.2 °F 29.45 in South 8.1 mph 10.3 mph 97% 0.05 in 0.00 W/m2
05:59 53.5 °F 52.7 °F 29.44 in Calm   14.9 mph 97% 0.05 in 0.00 W/m2
06:04 54.0 °F 53.2 °F 29.43 in NE 4.6 mph 4.6 mph 97% 0.05 in 0.00 W/m2
06:09 53.7 °F 52.9 °F 29.42 in SSE 6.9 mph 9.2 mph 97% 0.05 in 0.00 W/m2
06:14 53.6 °F 52.8 °F 29.42 in SE 8.1 mph 8.1 mph 97% 0.05 in 0.00 W/m2
06:19 53.5 °F 52.7 °F 29.43 in SSE 10.3 mph 11.5 mph 97% 0.05 in 0.00 W/m2
06:24 54.1 °F 53.3 °F 29.45 in South 4.6 mph 13.8 mph 97% 0.05 in 0.00 W/m2
06:29 54.5 °F 53.7 °F 29.44 in SSE 13.8 mph 13.8 mph 97% 0.05 in 0.00 W/m2
06:34 54.6 °F 53.8 °F 29.44 in SSE 9.2 mph 13.8 mph 97% 0.05 in 0.00 W/m2
06:39 54.8 °F 54.0 °F 29.44 in South 8.1 mph 11.5 mph 97% 0.05 in 0.00 W/m2
06:44 55.0 °F 54.2 °F 29.46 in WSW 6.9 mph 9.2 mph 97% 0.03 in 0.00 W/m2
06:46 55.0 °F 54.2 °F 29.47 in SW 6.9 mph 8.1 mph 97% 0.01 in 0.00 W/m2
06:51 54.9 °F 54.1 °F 29.46 in South 4.6 mph 4.6 mph 97% 0.01 in 5.00 W/m2
06:56 54.5 °F 53.4 °F 29.46 in South 5.8 mph 5.8 mph 96% 0.00 in 9.00 W/m2
07:01 54.2 °F 53.1 °F 29.46 in SE 8.1 mph 8.1 mph 96% 0.00 in 14.00 W/m2
07:06 54.2 °F 53.1 °F 29.46 in South 5.8 mph 6.9 mph 96% 0.00 in 23.00 W/m2
07:11 54.2 °F 53.1 °F 29.45 in South 9.2 mph 9.2 mph 96% 0.00 in 42.00 W/m2
07:16 54.9 °F 54.1 °F 29.46 in SSW 3.4 mph 8.1 mph 97% 0.00 in 56.00 W/m2
07:21 55.4 °F 54.3 °F 29.46 in South 9.2 mph 11.5 mph 96% 0.00 in 42.00 W/m2
07:26 55.6 °F 54.5 °F 29.46 in South 6.9 mph 8.1 mph 96% 0.00 in 49.00 W/m2
07:32 56.0 °F 54.9 °F 29.46 in SSE 3.4 mph 11.5 mph 96% 0.00 in 69.00 W/m2
07:37 56.2 °F 55.1 °F 29.46 in SSE 9.2 mph 9.2 mph 96% 0.00 in 46.00 W/m2
07:42 56.4 °F 55.0 °F 29.46 in South 12.6 mph 16.1 mph 95% 0.00 in 53.00 W/m2
07:47 56.9 °F 55.5 °F 29.46 in SSE 8.1 mph 9.2 mph 95% 0.00 in 74.00 W/m2
07:52 57.1 °F 55.7 °F 29.46 in South 6.9 mph 6.9 mph 95% 0.00 in 60.00 W/m2
07:57 57.4 °F 55.7 °F 29.46 in South 3.4 mph 6.9 mph 94% 0.00 in 109.00 W/m2
08:02 57.6 °F 55.9 °F 29.47 in South 9.2 mph 9.2 mph 94% 0.00 in 53.00 W/m2
08:07 57.8 °F 56.1 °F 29.47 in South 4.6 mph 9.2 mph 94% 0.00 in 51.00 W/m2
08:12 58.0 °F 56.3 °F 29.47 in SSE 5.8 mph 6.9 mph 94% 0.00 in 70.00 W/m2
08:17 58.1 °F 56.4 °F 29.47 in South 12.6 mph 13.8 mph 94% 0.00 in 79.00 W/m2
08:18 58.2 °F 56.5 °F 29.47 in SSE 9.2 mph 13.8 mph 94% 0.00 in 65.00 W/m2
08:23 58.4 °F 56.4 °F 29.47 in SSE 5.8 mph 12.6 mph 93% 0.00 in 63.00 W/m2
08:28 58.7 °F 56.7 °F 29.47 in SSW 8.1 mph 11.5 mph 93% 0.00 in 142.00 W/m2
08:34 59.1 °F 57.1 °F 29.47 in SSE 8.1 mph 14.9 mph 93% 0.00 in 148.00 W/m2
08:39 59.4 °F 57.1 °F 29.46 in South 11.5 mph 18.4 mph 92% 0.00 in 178.00 W/m2
08:44 59.7 °F 57.4 °F 29.46 in South 5.8 mph 13.8 mph 92% 0.00 in 269.00 W/m2
08:49 59.9 °F 57.6 °F 29.47 in SSW 6.9 mph 10.3 mph 92% 0.00 in 134.00 W/m2
08:54 60.0 °F 57.4 °F 29.46 in SSW 4.6 mph 12.6 mph 91% 0.00 in 137.00 W/m2
08:59 60.3 °F 57.7 °F 29.46 in SW 9.2 mph 9.2 mph 91% 0.00 in 165.00 W/m2
09:04 60.5 °F 57.6 °F 29.46 in SSW 10.3 mph 12.6 mph 90% 0.00 in 149.00 W/m2
09:09 60.7 °F 57.8 °F 29.46 in SW 5.8 mph 9.2 mph 90% 0.00 in 84.00 W/m2
09:14 60.7 °F 57.8 °F 29.46 in SSW 5.8 mph 14.9 mph 90% 0.00 in 65.00 W/m2
09:19 60.7 °F 57.8 °F 29.46 in SSE 9.2 mph 16.1 mph 90% 0.00 in 49.00 W/m2
09:24 60.7 °F 57.8 °F 29.46 in SSW 10.3 mph 12.6 mph 90% 0.00 in 42.00 W/m2
09:29 60.7 °F 57.8 °F 29.46 in SSE 12.6 mph 16.1 mph 90% 0.00 in 32.00 W/m2
09:34 60.8 °F 57.5 °F 29.45 in South 5.8 mph 14.9 mph 89% 0.00 in 63.00 W/m2
09:39 60.8 °F 57.8 °F 29.45 in West 6.9 mph 10.3 mph 90% 0.00 in 54.00 W/m2
09:44 60.9 °F 57.6 °F 29.45 in SSE 8.1 mph 12.6 mph 89% 0.00 in 46.00 W/m2
09:49 60.9 °F 57.6 °F 29.45 in South 8.1 mph 13.8 mph 89% 0.00 in 35.00 W/m2
09:54 61.1 °F 57.8 °F 29.45 in SSW 10.3 mph 16.1 mph 89% 0.00 in 151.00 W/m2
10:00 61.3 °F 58.0 °F 29.45 in South 13.8 mph 18.4 mph 89% 0.00 in 169.00 W/m2
10:05 61.7 °F 58.4 °F 29.44 in South 6.9 mph 13.8 mph 89% 0.00 in 135.00 W/m2
10:10 61.8 °F 58.5 °F 29.44 in SE 6.9 mph 18.4 mph 89% 0.00 in 144.00 W/m2
10:15 62.0 °F 58.4 °F 29.44 in SSE 10.3 mph 25.3 mph 88% 0.00 in 98.00 W/m2
10:17 62.1 °F 58.5 °F 29.44 in SE 14.9 mph 19.5 mph 88% 0.00 in 118.00 W/m2
10:22 62.2 °F 58.3 °F 29.44 in SW 11.5 mph 18.4 mph 87% 0.00 in 98.00 W/m2
10:27 62.3 °F 58.7 °F 29.44 in South 11.5 mph 20.7 mph 88% 0.00 in 102.00 W/m2
10:32 62.5 °F 58.6 °F 29.44 in South 9.2 mph 16.1 mph 87% 0.00 in 167.00 W/m2
10:38 62.7 °F 58.8 °F 29.44 in SSE 11.5 mph 14.9 mph 87% 0.00 in 141.00 W/m2
10:43 62.9 °F 58.7 °F 29.45 in SSW 16.1 mph 19.5 mph 86% 0.00 in 90.00 W/m2
10:48 62.9 °F 59.0 °F 29.44 in SSW 8.1 mph 16.1 mph 87% 0.00 in 86.00 W/m2
10:53 62.9 °F 59.0 °F 29.44 in SSW 8.1 mph 12.6 mph 87% 0.00 in 83.00 W/m2
10:58 62.9 °F 58.7 °F 29.44 in South 10.3 mph 18.4 mph 86% 0.00 in 88.00 W/m2
11:03 62.9 °F 58.7 °F 29.44 in SSW 12.6 mph 12.6 mph 86% 0.00 in 54.00 W/m2
11:08 62.9 °F 59.0 °F 29.44 in SSW 9.2 mph 11.5 mph 87% 0.00 in 56.00 W/m2
11:13 62.9 °F 58.7 °F 29.44 in SSW 8.1 mph 13.8 mph 86% 0.00 in 65.00 W/m2
11:18 63.0 °F 58.8 °F 29.44 in SSW 6.9 mph 18.4 mph 86% 0.00 in 49.00 W/m2
11:23 63.0 °F 58.8 °F 29.44 in South 13.8 mph 14.9 mph 86% 0.00 in 49.00 W/m2
11:28 63.1 °F 58.8 °F 29.43 in South 8.1 mph 12.6 mph 86% 0.00 in 109.00 W/m2
11:33 63.1 °F 58.8 °F 29.43 in South 10.3 mph 13.8 mph 86% 0.00 in 63.00 W/m2
11:38 63.1 °F 58.8 °F 29.43 in SSW 6.9 mph 12.6 mph 86% 0.00 in 40.00 W/m2
11:43 63.0 °F 58.8 °F 29.43 in SW 6.9 mph 12.6 mph 86% 0.00 in 49.00 W/m2
11:48 62.9 °F 58.7 °F 29.43 in SW 3.4 mph 10.3 mph 86% 0.00 in 28.00 W/m2
11:53 62.9 °F 58.7 °F 29.43 in SW 5.8 mph 12.6 mph 86% 0.00 in 47.00 W/m2
11:58 62.8 °F 58.6 °F 29.42 in SSW 6.9 mph 8.1 mph 86% 0.00 in 33.00 W/m2
12:03 62.8 °F 58.9 °F 29.42 in SW 6.9 mph 9.2 mph 87% 0.00 in 63.00 W/m2
12:09 62.8 °F 58.6 °F 29.42 in SSW 6.9 mph 14.9 mph 86% 0.00 in 79.00 W/m2
12:14 63.0 °F 58.8 °F 29.42 in SSW 9.2 mph 10.3 mph 86% 0.00 in 105.00 W/m2
12:19 63.4 °F 58.8 °F 29.42 in SW 6.9 mph 9.2 mph 85% 0.00 in 250.00 W/m2
12:24 64.2 °F 59.6 °F 29.41 in SSW 5.8 mph 11.5 mph 85% 0.00 in 323.00 W/m2
12:29 64.8 °F 59.5 °F 29.41 in SSW 8.1 mph 16.1 mph 83% 0.00 in 118.00 W/m2
12:34 64.8 °F 59.2 °F 29.41 in SSW 3.4 mph 14.9 mph 82% 0.00 in 98.00 W/m2
12:39 64.7 °F 59.1 °F 29.41 in West 6.9 mph 16.1 mph 82% 0.00 in 97.00 W/m2
12:44 64.7 °F 59.1 °F 29.41 in SW 5.8 mph 13.8 mph 82% 0.00 in 162.00 W/m2
12:49 64.7 °F 58.7 °F 29.41 in SW 17.2 mph 20.7 mph 81% 0.00 in 84.00 W/m2
12:54 64.7 °F 58.4 °F 29.41 in WSW 12.6 mph 14.9 mph 80% 0.00 in 95.00 W/m2
12:59 64.7 °F 58.4 °F 29.41 in WSW 14.9 mph 17.2 mph 80% 0.00 in 209.00 W/m2
13:04 60.9 °F 54.0 °F 29.41 in North 5.8 mph 9.2 mph 78% 0.00 in 97.00 W/m2
13:09 57.2 °F 52.7 °F 29.41 in NNW 4.6 mph 9.2 mph 85% 0.00 in 144.00 W/m2
13:14 55.9 °F 52.4 °F 29.41 in NNW 3.4 mph 8.1 mph 88% 0.00 in 160.00 W/m2
13:19 55.3 °F 51.8 °F 29.42 in NNW 5.8 mph 10.3 mph 88% 0.00 in 125.00 W/m2
13:24 53.9 °F 50.4 °F 29.42 in North 8.1 mph 10.3 mph 88% 0.00 in 120.00 W/m2
13:29 53.0 °F 49.5 °F 29.42 in NNE 4.6 mph 6.9 mph 88% 0.00 in 190.00 W/m2
13:34 52.5 °F 49.4 °F 29.42 in NNE 3.4 mph 6.9 mph 89% 0.00 in 77.00 W/m2
13:39 52.4 °F 49.3 °F 29.42 in Calm   4.6 mph 89% 0.00 in 116.00 W/m2
13:45 53.0 °F 49.8 °F 29.43 in NNW 2.3 mph 6.9 mph 89% 0.00 in 163.00 W/m2
13:50 53.7 °F 50.5 °F 29.43 in NNW 6.9 mph 6.9 mph 89% 0.00 in 220.00 W/m2
13:55 54.5 °F 51.6 °F 29.43 in NNW 5.8 mph 6.9 mph 90% 0.00 in 645.00 W/m2
14:00 55.3 °F 51.5 °F 29.43 in North 4.6 mph 6.9 mph 87% 0.00 in 538.00 W/m2
14:05 56.4 °F 52.3 °F 29.43 in NW 2.3 mph 5.8 mph 86% 0.00 in 527.00 W/m2
14:10 55.6 °F 51.2 °F 29.44 in Calm   4.6 mph 85% 0.00 in 478.00 W/m2
14:15 55.5 °F 51.7 °F 29.44 in Calm   4.6 mph 87% 0.00 in 155.00 W/m2
14:20 55.7 °F 52.2 °F 29.44 in NW 4.6 mph 4.6 mph 88% 0.00 in 181.00 W/m2
14:25 56.7 °F 53.5 °F 29.44 in WNW 9.2 mph 12.6 mph 89% 0.00 in 236.00 W/m2
14:30 56.9 °F 53.1 °F 29.44 in WNW 9.2 mph 12.6 mph 87% 0.00 in 144.00 W/m2
14:35 56.7 °F 53.2 °F 29.44 in WNW 6.9 mph 9.2 mph 88% 0.00 in 167.00 W/m2
14:40 56.6 °F 53.1 °F 29.45 in WNW 5.8 mph 9.2 mph 88% 0.00 in 77.00 W/m2
14:45 57.1 °F 53.9 °F 29.45 in WSW 12.6 mph 12.6 mph 89% 0.00 in 179.00 W/m2
14:50 58.7 °F 54.2 °F 29.45 in WSW 14.9 mph 18.4 mph 85% 0.00 in 190.00 W/m2
14:56 59.2 °F 53.4 °F 29.46 in West 19.5 mph 23.0 mph 81% 0.00 in 214.00 W/m2
15:01 58.8 °F 53.0 °F 29.46 in WSW 16.1 mph 25.3 mph 81% 0.00 in 162.00 W/m2
15:06 58.6 °F 53.1 °F 29.46 in West 11.5 mph 23.0 mph 82% 0.00 in 267.00 W/m2
15:11 58.2 °F 52.4 °F 29.46 in WNW 10.3 mph 25.3 mph 81% 0.00 in 211.00 W/m2
15:16 56.8 °F 51.4 °F 29.46 in West 16.1 mph 25.3 mph 82% 0.00 in 169.00 W/m2
15:21 56.2 °F 51.1 °F 29.47 in West 19.5 mph 26.4 mph 83% 0.00 in 148.00 W/m2
15:26 55.7 °F 51.0 °F 29.47 in West 18.4 mph 29.9 mph 84% 0.00 in 153.00 W/m2
15:31 54.1 °F 49.4 °F 29.47 in West 16.1 mph 31.0 mph 84% 0.00 in 227.00 W/m2
15:36 53.3 °F 48.9 °F 29.47 in WSW 11.5 mph 26.4 mph 85% 0.00 in 107.00 W/m2
15:41 52.5 °F 47.8 °F 29.48 in SW 18.4 mph 18.4 mph 84% 0.00 in 104.00 W/m2
15:46 51.5 °F 47.2 °F 29.49 in West 21.9 mph 21.9 mph 85% 0.00 in 84.00 W/m2
15:51 50.4 °F 46.4 °F 29.49 in WSW 14.9 mph 14.9 mph 86% 0.00 in 69.00 W/m2
15:56 49.6 °F 45.9 °F 29.49 in West 14.9 mph 16.1 mph 87% 0.00 in 40.00 W/m2
16:01 49.1 °F 45.7 °F 29.49 in WSW 18.4 mph 20.7 mph 88% 0.00 in 54.00 W/m2
16:06 48.6 °F 45.2 °F 29.50 in WNW 11.5 mph 24.1 mph 88% 0.00 in 40.00 W/m2
16:11 48.0 °F 44.6 °F 29.50 in WNW 17.2 mph 24.1 mph 88% 0.00 in 33.00 W/m2
16:16 47.5 °F 44.1 °F 29.51 in WNW 21.9 mph 25.3 mph 88% 0.00 in 26.00 W/m2
16:21 47.2 °F 44.1 °F 29.51 in West 20.7 mph 20.7 mph 89% 0.00 in 23.00 W/m2
16:27 46.9 °F 43.8 °F 29.51 in West 19.5 mph 23.0 mph 89% 0.00 in 19.00 W/m2
16:32 46.7 °F 43.6 °F 29.52 in West 23.0 mph 23.0 mph 89% 0.00 in 37.00 W/m2
16:37 46.3 °F 43.2 °F 29.51 in WSW 16.1 mph 21.9 mph 89% 0.00 in 32.00 W/m2
16:42 46.1 °F 42.8 °F 29.52 in West 13.8 mph 18.4 mph 88% 0.00 in 25.00 W/m2
16:47 46.0 °F 43.0 °F 29.52 in West 13.8 mph 24.1 mph 89% 0.00 in 19.00 W/m2
16:52 45.9 °F 42.8 °F 29.52 in West 20.7 mph 24.1 mph 89% 0.00 in 18.00 W/m2
16:57 45.8 °F 42.8 °F 29.52 in West 13.8 mph 20.7 mph 89% 0.00 in 14.00 W/m2
17:02 45.6 °F 42.5 °F 29.53 in West 17.2 mph 21.9 mph 89% 0.00 in 11.00 W/m2
17:07 45.5 °F 42.2 °F 29.53 in West 10.3 mph 20.7 mph 88% 0.00 in 11.00 W/m2
17:12 45.4 °F 42.3 °F 29.53 in WNW 9.2 mph 17.2 mph 89% 0.00 in 5.00 W/m2
17:17 45.3 °F 42.0 °F 29.53 in NW 17.2 mph 17.2 mph 88% 0.00 in 5.00 W/m2
17:22 45.2 °F 42.2 °F 29.54 in WSW 8.1 mph 14.9 mph 89% 0.00 in 0.00 W/m2
17:27 45.1 °F 42.1 °F 29.54 in West 19.5 mph 20.7 mph 89% 0.00 in 0.00 W/m2
17:32 45.0 °F 42.0 °F 29.54 in West 20.7 mph 23.0 mph 89% 0.00 in 0.00 W/m2
17:37 44.8 °F 41.8 °F 29.54 in West 10.3 mph 23.0 mph 89% 0.00 in 0.00 W/m2
17:42 44.7 °F 41.7 °F 29.53 in WNW 17.2 mph 18.4 mph 89% 0.00 in 0.00 W/m2
17:47 44.7 °F 41.7 °F 29.53 in West 9.2 mph 23.0 mph 89% 0.00 in 0.00 W/m2
17:52 44.6 °F 41.6 °F 29.54 in West 24.1 mph 25.3 mph 89% 0.00 in 0.00 W/m2
17:58 44.3 °F 41.3 °F 29.54 in West 17.2 mph 23.0 mph 89% 0.00 in 0.00 W/m2
18:03 44.2 °F 40.9 °F 29.53 in WNW 13.8 mph 26.4 mph 88% 0.00 in 0.00 W/m2
18:08 44.1 °F 41.1 °F 29.53 in NW 17.2 mph 24.1 mph 89% 0.00 in 0.00 W/m2
18:13 44.0 °F 41.3 °F 29.54 in West 9.2 mph 16.1 mph 90% 0.00 in 0.00 W/m2
18:18 43.6 °F 40.9 °F 29.54 in SW 12.6 mph 21.9 mph 90% 0.00 in 0.00 W/m2
18:23 43.2 °F 40.5 °F 29.55 in West 13.8 mph 17.2 mph 90% 0.00 in 0.00 W/m2
18:28 42.9 °F 40.5 °F 29.55 in WSW 8.1 mph 18.4 mph 91% 0.00 in 0.00 W/m2
18:33 42.7 °F 40.3 °F 29.55 in WSW 18.4 mph 20.7 mph 91% 0.00 in 0.00 W/m2
18:38 42.6 °F 39.9 °F 29.56 in WSW 14.9 mph 20.7 mph 90% 0.00 in 0.00 W/m2
18:43 42.5 °F 39.5 °F 29.56 in WNW 11.5 mph 23.0 mph 89% 0.00 in 0.00 W/m2
18:48 42.6 °F 39.6 °F 29.56 in West 16.1 mph 23.0 mph 89% 0.00 in 0.00 W/m2
18:53 42.6 °F 39.6 °F 29.56 in West 20.7 mph 20.7 mph 89% 0.00 in 0.00 W/m2
18:58 42.6 °F 39.6 °F 29.56 in West 14.9 mph 19.5 mph 89% 0.00 in 0.00 W/m2
19:03 42.6 °F 39.3 °F 29.57 in West 14.9 mph 20.7 mph 88% 0.00 in 0.00 W/m2
19:08 42.6 °F 39.3 °F 29.57 in West 10.3 mph 14.9 mph 88% 0.00 in 0.00 W/m2
19:13 42.6 °F 39.0 °F 29.56 in WNW 18.4 mph 18.4 mph 87% 0.00 in 0.00 W/m2
19:18 42.5 °F 38.6 °F 29.57 in WSW 8.1 mph 16.1 mph 86% 0.00 in 0.00 W/m2
19:24 42.6 °F 37.8 °F 29.57 in West 20.7 mph 23.0 mph 83% 0.00 in 0.00 W/m2
19:29 42.6 °F 37.8 °F 29.57 in WNW 16.1 mph 23.0 mph 83% 0.00 in 0.00 W/m2
19:34 42.6 °F 37.8 °F 29.57 in WSW 14.9 mph 25.3 mph 83% 0.00 in 0.00 W/m2
19:39 42.5 °F 38.0 °F 29.58 in West 14.9 mph 20.7 mph 84% 0.00 in 0.00 W/m2
19:44 42.3 °F 38.4 °F 29.58 in WNW 12.6 mph 21.9 mph 86% 0.00 in 0.00 W/m2
19:49 41.9 °F 38.3 °F 29.58 in West 8.1 mph 16.1 mph 87% 0.00 in 0.00 W/m2
19:54 41.6 °F 38.3 °F 29.57 in WNW 4.6 mph 11.5 mph 88% 0.00 in 0.00 W/m2
19:59 41.5 °F 38.5 °F 29.58 in West 13.8 mph 13.8 mph 89% 0.00 in 0.00 W/m2
20:04 41.4 °F 38.4 °F 29.58 in WSW 4.6 mph 10.3 mph 89% 0.00 in 0.00 W/m2
20:09 41.3 °F 38.3 °F 29.59 in West 3.4 mph 11.5 mph 89% 0.00 in 0.00 W/m2
20:14 41.2 °F 38.2 °F 29.59 in West 9.2 mph 13.8 mph 89% 0.00 in 0.00 W/m2
20:19 41.3 °F 38.3 °F 29.59 in West 9.2 mph 16.1 mph 89% 0.00 in 0.00 W/m2
20:24 41.4 °F 38.1 °F 29.59 in NW 6.9 mph 14.9 mph 88% 0.00 in 0.00 W/m2
20:29 41.5 °F 38.2 °F 29.59 in WNW 10.3 mph 13.8 mph 88% 0.00 in 0.00 W/m2
20:35 41.3 °F 38.3 °F 29.59 in WNW 8.1 mph 17.2 mph 89% 0.00 in 0.00 W/m2
20:40 41.1 °F 38.1 °F 29.59 in West 12.6 mph 14.9 mph 89% 0.00 in 0.00 W/m2
20:45 41.0 °F 38.0 °F 29.59 in WNW 6.9 mph 17.2 mph 89% 0.00 in 0.00 W/m2
20:50 40.6 °F 37.6 °F 29.59 in West 10.3 mph 12.6 mph 89% 0.00 in 0.00 W/m2
20:55 40.2 °F 37.2 °F 29.59 in WNW 6.9 mph 11.5 mph 89% 0.00 in 0.00 W/m2
21:00 40.0 °F 37.3 °F 29.60 in West 8.1 mph 11.5 mph 90% 0.00 in 0.00 W/m2
21:05 39.9 °F 37.2 °F 29.60 in West 3.4 mph 8.1 mph 90% 0.00 in 0.00 W/m2
21:10 39.8 °F 37.1 °F 29.59 in WNW 8.1 mph 10.3 mph 90% 0.00 in 0.00 W/m2
21:15 39.7 °F 37.0 °F 29.59 in West 4.6 mph 9.2 mph 90% 0.00 in 0.00 W/m2
21:20 39.7 °F 37.0 °F 29.59 in WNW 8.1 mph 9.2 mph 90% 0.00 in 0.00 W/m2
21:25 39.7 °F 37.3 °F 29.59 in WNW 6.9 mph 12.6 mph 91% 0.00 in 0.00 W/m2
21:30 39.7 °F 37.0 °F 29.59 in WNW 6.9 mph 11.5 mph 90% 0.00 in 0.00 W/m2
21:35 39.7 °F 37.0 °F 29.59 in WNW 6.9 mph 9.2 mph 90% 0.00 in 0.00 W/m2
21:40 39.6 °F 36.9 °F 29.60 in WNW 6.9 mph 12.6 mph 90% 0.00 in 0.00 W/m2
21:45 39.3 °F 36.3 °F 29.60 in West 6.9 mph 10.3 mph 89% 0.00 in 0.00 W/m2
21:50 39.1 °F 36.1 °F 29.60 in WSW 6.9 mph 12.6 mph 89% 0.00 in 0.00 W/m2
21:56 38.9 °F 36.2 °F 29.60 in West 6.9 mph 11.5 mph 90% 0.00 in 0.00 W/m2
22:01 38.9 °F 36.2 °F 29.60 in West 4.6 mph 10.3 mph 90% 0.00 in 0.00 W/m2
22:06 38.9 °F 36.2 °F 29.60 in WNW 6.9 mph 11.5 mph 90% 0.00 in 0.00 W/m2
22:11 39.2 °F 36.5 °F 29.61 in West 5.8 mph 10.3 mph 90% 0.00 in 0.00 W/m2
22:16 39.4 °F 36.7 °F 29.60 in West 10.3 mph 14.9 mph 90% 0.00 in 0.00 W/m2
22:21 39.6 °F 36.9 °F 29.60 in West 10.3 mph 12.6 mph 90% 0.00 in 0.00 W/m2
22:26 39.5 °F 36.8 °F 29.60 in WNW 8.1 mph 14.9 mph 90% 0.00 in 0.00 W/m2
22:31 39.4 °F 36.7 °F 29.60 in WNW 10.3 mph 16.1 mph 90% 0.00 in 0.00 W/m2
peotoneweather.com
Compliments of Weather Underground - 1.75 mb